createdAt,value
2022-10-16T00:01:36.843Z,10.48
2022-10-16T00:04:04.431Z,11.77
2022-10-16T00:06:32.460Z,12.07
2022-10-16T00:09:00.355Z,11.43
2022-10-16T00:11:36.848Z,11.30
2022-10-16T00:14:07.827Z,12.38
2022-10-16T00:16:35.528Z,12.73
2022-10-16T00:19:03.600Z,11.63
2022-10-16T00:21:32.340Z,12.27
2022-10-16T00:24:06.882Z,11.75
2022-10-16T00:26:36.118Z,12.38
2022-10-16T00:29:04.604Z,12.77
2022-10-16T00:31:32.049Z,11.77
2022-10-16T00:34:00.675Z,12.70
2022-10-16T00:36:28.160Z,12.70
2022-10-16T00:41:28.974Z,12.70
2022-10-16T00:44:02.518Z,13.13
2022-10-16T00:46:40.276Z,12.63
2022-10-16T00:49:20.485Z,12.40
2022-10-16T00:51:53.993Z,10.73
2022-10-16T00:54:28.345Z,11.80
2022-10-16T00:56:58.588Z,11.52
2022-10-16T00:59:32.474Z,13.30
2022-10-16T01:02:03.112Z,13.18
2022-10-16T01:04:50.658Z,12.15
2022-10-16T01:07:39.204Z,12.98
2022-10-16T01:10:36.141Z,12.20
2022-10-16T01:13:15.039Z,12.13
2022-10-16T01:16:10.046Z,11.80
2022-10-16T01:19:10.036Z,12.52
2022-10-16T01:21:42.799Z,12.15
2022-10-16T01:24:20.134Z,11.98
2022-10-16T01:27:25.382Z,11.88
2022-10-16T01:30:23.631Z,11.77
2022-10-16T01:33:18.364Z,11.43
2022-10-16T01:36:03.113Z,11.77
2022-10-16T01:38:40.780Z,9.57
2022-10-16T01:41:46.970Z,11.73
2022-10-16T01:44:24.286Z,10.75
2022-10-16T01:46:53.149Z,11.65
2022-10-16T01:49:24.296Z,9.85
2022-10-16T01:51:55.983Z,10.93
2022-10-16T01:54:26.150Z,10.82
2022-10-16T01:56:55.236Z,10.85
2022-10-16T01:59:26.922Z,12.05
2022-10-16T02:02:00.133Z,11.05
2022-10-16T02:04:43.105Z,11.80
2022-10-16T02:07:11.528Z,12.05
2022-10-16T02:09:39.333Z,10.30
2022-10-16T02:12:19.327Z,11.38
2022-10-16T02:14:46.473Z,13.25
2022-10-16T02:17:17.254Z,13.63
2022-10-16T02:19:46.908Z,12.50
2022-10-16T02:22:30.071Z,12.48
2022-10-16T02:25:18.065Z,15.48
2022-10-16T02:28:15.462Z,12.98
2022-10-16T02:30:56.621Z,11.05
2022-10-16T02:33:25.781Z,12.05
2022-10-16T02:35:54.846Z,13.65
2022-10-16T02:38:23.276Z,14.18
2022-10-16T02:40:50.810Z,13.48
2022-10-16T02:43:18.106Z,12.98
2022-10-16T02:45:45.611Z,14.68
2022-10-16T02:48:12.714Z,15.88
2022-10-16T02:50:39.775Z,14.38
2022-10-16T02:53:06.925Z,13.18
2022-10-16T02:55:34.137Z,11.75
2022-10-16T02:58:01.228Z,12.38
2022-10-16T03:00:28.904Z,10.85
2022-10-16T03:02:56.001Z,10.88
2022-10-16T03:07:50.037Z,11.98
2022-10-16T03:10:17.144Z,10.88
2022-10-16T03:12:44.179Z,10.95
2022-10-16T03:15:11.315Z,11.43
2022-10-16T03:17:38.481Z,11.90
2022-10-16T03:20:06.203Z,11.20
2022-10-16T03:22:33.560Z,13.20
2022-10-16T03:25:00.673Z,14.73
2022-10-16T03:27:28.223Z,13.70
2022-10-16T03:29:55.875Z,14.43
2022-10-16T03:32:25.219Z,12.35
2022-10-16T03:34:54.508Z,12.40
2022-10-16T03:37:21.642Z,13.80
2022-10-16T03:39:48.858Z,12.05
2022-10-16T03:42:16.037Z,12.82
2022-10-16T03:44:43.148Z,12.88
2022-10-16T03:47:10.302Z,13.57
2022-10-16T03:49:37.472Z,13.13
2022-10-16T03:52:04.688Z,13.27
2022-10-16T03:54:31.725Z,14.23
2022-10-16T03:56:58.768Z,13.07
2022-10-16T03:59:25.869Z,12.45
2022-10-16T04:01:53.096Z,12.18
2022-10-16T04:04:20.201Z,14.50
2022-10-16T04:06:47.249Z,11.93
2022-10-16T04:09:14.496Z,11.00
2022-10-16T04:11:41.560Z,12.65
2022-10-16T04:14:08.979Z,10.88
2022-10-16T04:16:36.174Z,11.85
2022-10-16T04:19:03.508Z,10.38
2022-10-16T04:21:30.774Z,11.88
2022-10-16T04:23:57.941Z,12.75
2022-10-16T04:26:25.104Z,17.58
2022-10-16T04:28:52.283Z,17.63
2022-10-16T04:31:19.645Z,15.68
2022-10-16T04:33:46.693Z,14.80
2022-10-16T04:36:14.167Z,14.82
2022-10-16T04:38:41.224Z,14.65
2022-10-16T04:41:08.509Z,13.57
2022-10-16T04:43:35.765Z,12.57
2022-10-16T04:46:04.961Z,14.20
2022-10-16T04:48:33.038Z,13.98
2022-10-16T04:51:00.618Z,12.93
2022-10-16T04:53:27.746Z,13.55
2022-10-16T04:55:55.264Z,12.07
2022-10-16T04:58:22.427Z,13.75
2022-10-16T05:00:49.498Z,14.00
2022-10-16T05:03:16.865Z,15.18
2022-10-16T05:05:45.998Z,15.25
2022-10-16T05:08:15.125Z,14.40
2022-10-16T05:10:43.766Z,13.52
2022-10-16T05:13:11.682Z,16.53
2022-10-16T05:15:38.889Z,15.02
2022-10-16T05:18:06.064Z,12.25
2022-10-16T05:20:33.364Z,13.48
2022-10-16T05:23:00.552Z,16.65
2022-10-16T05:25:27.806Z,13.45
2022-10-16T05:27:55.156Z,15.38
2022-10-16T05:30:22.610Z,12.00
2022-10-16T05:32:51.117Z,12.90
2022-10-16T05:35:20.143Z,14.53
2022-10-16T05:37:47.762Z,14.38
2022-10-16T05:40:17.217Z,14.35
2022-10-16T05:42:44.560Z,14.40
2022-10-16T05:45:12.788Z,14.43
2022-10-16T05:47:40.429Z,12.90
2022-10-16T05:50:08.081Z,13.13
2022-10-16T05:52:35.330Z,12.52
2022-10-16T05:55:02.837Z,13.57
2022-10-16T05:57:30.321Z,11.70
2022-10-16T05:59:57.528Z,11.40
2022-10-16T06:02:24.580Z,10.27
2022-10-16T06:04:54.898Z,12.20
2022-10-16T06:07:23.872Z,11.40
2022-10-16T06:09:53.199Z,11.35
2022-10-16T06:14:47.993Z,10.68
2022-10-16T06:17:16.198Z,8.65
2022-10-16T06:19:43.317Z,9.02
2022-10-16T06:22:10.540Z,9.00
2022-10-16T06:24:37.658Z,8.00
2022-10-16T06:27:05.283Z,8.98
2022-10-16T06:29:32.342Z,8.68
2022-10-16T06:31:59.473Z,9.25
2022-10-16T06:34:26.493Z,8.50
2022-10-16T06:36:53.616Z,10.38
2022-10-16T06:39:20.760Z,10.50
2022-10-16T06:41:47.892Z,9.13
2022-10-16T06:44:20.058Z,8.45
2022-10-16T06:49:16.246Z,9.63
2022-10-16T06:51:43.693Z,9.70
2022-10-16T06:54:11.085Z,9.07
2022-10-16T06:56:38.534Z,9.07
2022-10-16T06:59:05.726Z,9.35
2022-10-16T07:01:33.393Z,10.18
2022-10-16T07:04:02.426Z,11.07
2022-10-16T07:06:34.090Z,9.57
2022-10-16T07:09:07.268Z,8.80
2022-10-16T07:11:34.928Z,9.68
2022-10-16T07:14:02.030Z,9.52
2022-10-16T07:16:32.452Z,8.90
2022-10-16T07:19:02.841Z,7.93
2022-10-16T07:21:35.751Z,9.05
2022-10-16T07:24:07.978Z,7.45
2022-10-16T07:26:37.058Z,8.10
2022-10-16T07:29:04.741Z,7.93
2022-10-16T07:31:32.260Z,8.80
2022-10-16T07:34:00.932Z,8.88
2022-10-16T07:36:28.702Z,9.25
2022-10-16T07:38:58.844Z,9.77
2022-10-16T07:41:28.565Z,8.82
2022-10-16T07:44:00.215Z,8.77
2022-10-16T07:46:27.632Z,8.73
2022-10-16T07:48:55.290Z,8.75
2022-10-16T07:51:25.369Z,7.78
2022-10-16T07:53:53.355Z,8.73
2022-10-16T07:56:21.623Z,8.45
2022-10-16T07:58:50.323Z,8.23
2022-10-16T08:01:19.024Z,8.98
2022-10-16T08:03:49.701Z,8.23
2022-10-16T08:06:20.838Z,9.80
2022-10-16T08:08:51.163Z,6.05
2022-10-16T08:11:18.469Z,8.90
2022-10-16T08:13:45.540Z,8.20
2022-10-16T08:16:12.820Z,9.40
2022-10-16T08:18:41.150Z,8.45
2022-10-16T08:21:20.370Z,7.68
2022-10-16T08:23:54.493Z,7.95
2022-10-16T08:26:27.199Z,6.53
2022-10-16T08:28:55.574Z,7.57
2022-10-16T08:31:23.928Z,7.47
2022-10-16T08:33:52.483Z,8.30
2022-10-16T08:36:19.975Z,7.17
2022-10-16T08:38:50.998Z,6.00
2022-10-16T08:41:58.362Z,5.25
2022-10-16T08:44:53.357Z,6.20
2022-10-16T08:47:26.450Z,5.47
2022-10-16T08:50:02.224Z,5.50
2022-10-16T08:52:39.148Z,6.05
2022-10-16T08:55:07.191Z,5.63
2022-10-16T08:57:34.300Z,5.70
2022-10-16T09:00:13.164Z,6.53
2022-10-16T09:03:00.056Z,6.38
2022-10-16T09:05:52.049Z,5.45
2022-10-16T09:09:05.272Z,5.13
2022-10-16T09:11:56.201Z,6.07
2022-10-16T09:15:07.572Z,5.13
2022-10-16T09:17:44.716Z,5.38
2022-10-16T09:20:28.995Z,5.93
2022-10-16T09:23:30.011Z,6.32
2022-10-16T09:25:59.728Z,4.18
2022-10-16T09:28:26.880Z,4.70
2022-10-16T09:30:54.674Z,4.57
2022-10-16T09:33:28.460Z,5.22
2022-10-16T09:35:59.057Z,6.35
2022-10-16T09:38:33.366Z,5.32
2022-10-16T09:41:12.013Z,4.25
2022-10-16T09:43:57.961Z,4.90
2022-10-16T09:46:38.560Z,4.07
2022-10-16T09:49:24.799Z,3.55
2022-10-16T09:52:03.946Z,3.95
2022-10-16T09:54:31.375Z,3.28
2022-10-16T09:57:13.493Z,3.50
2022-10-16T09:59:53.029Z,3.75
2022-10-16T10:02:40.542Z,3.70
2022-10-16T10:05:25.909Z,4.82
2022-10-16T10:07:58.463Z,3.55
2022-10-16T10:10:29.556Z,3.58
2022-10-16T10:12:57.679Z,3.88
2022-10-16T10:15:27.167Z,4.32
2022-10-16T10:17:58.003Z,3.47
2022-10-16T10:20:38.486Z,3.90
2022-10-16T10:23:24.044Z,3.72
2022-10-16T10:26:21.088Z,4.30
2022-10-16T10:29:20.973Z,4.75
2022-10-16T10:32:09.251Z,3.45
2022-10-16T10:34:50.631Z,6.28
2022-10-16T10:37:38.728Z,4.32
2022-10-16T10:40:59.790Z,3.85
2022-10-16T10:44:01.011Z,3.50
2022-10-16T10:46:56.272Z,4.63
2022-10-16T10:50:10.155Z,3.65
2022-10-16T10:52:43.258Z,3.85
2022-10-16T10:55:46.760Z,4.28
2022-10-16T10:58:33.656Z,4.25
2022-10-16T11:01:32.885Z,5.03
2022-10-16T11:04:28.860Z,3.90
2022-10-16T11:07:10.157Z,4.40
2022-10-16T11:09:48.427Z,3.80
2022-10-16T11:12:37.772Z,3.97
2022-10-16T11:15:34.327Z,3.80
2022-10-16T11:18:10.852Z,3.47
2022-10-16T11:21:03.427Z,4.82
2022-10-16T11:24:05.001Z,4.75
2022-10-16T11:26:40.196Z,4.72
2022-10-16T11:29:27.742Z,4.78
2022-10-16T11:32:05.660Z,4.57
2022-10-16T11:34:45.308Z,4.35
2022-10-16T11:37:21.269Z,4.70
2022-10-16T11:39:50.693Z,5.10
2022-10-16T11:42:31.328Z,5.20
2022-10-16T11:45:06.947Z,4.95
2022-10-16T11:48:28.812Z,5.10
2022-10-16T11:51:12.665Z,4.70
2022-10-16T11:54:02.830Z,4.18
2022-10-16T11:56:32.906Z,4.03
2022-10-16T11:59:26.225Z,4.05
2022-10-16T12:02:21.915Z,4.68
2022-10-16T12:05:12.719Z,4.53
2022-10-16T12:07:57.077Z,4.80
2022-10-16T12:10:28.894Z,4.25
2022-10-16T12:12:57.286Z,3.92
2022-10-16T12:15:57.631Z,4.03
2022-10-16T12:18:25.957Z,4.50
2022-10-16T12:21:06.186Z,4.25
2022-10-16T12:24:04.768Z,3.92
2022-10-16T12:26:39.881Z,4.65
2022-10-16T12:29:33.275Z,4.18
2022-10-16T12:32:01.240Z,4.78
2022-10-16T12:34:43.358Z,3.40
2022-10-16T12:37:37.371Z,3.90
2022-10-16T12:40:23.980Z,4.82
2022-10-16T12:42:51.448Z,4.07
2022-10-16T12:45:32.160Z,3.95
2022-10-16T12:48:02.234Z,3.65
2022-10-16T12:50:37.474Z,3.85
2022-10-16T12:53:26.913Z,3.90
2022-10-16T12:56:10.441Z,4.15
2022-10-16T12:58:57.914Z,3.78
2022-10-16T13:02:18.326Z,3.50
2022-10-16T13:05:00.709Z,4.97
2022-10-16T13:08:17.271Z,3.85
2022-10-16T13:11:27.179Z,3.75
2022-10-16T13:14:45.505Z,4.22
2022-10-16T13:17:29.854Z,4.63
2022-10-16T13:20:19.744Z,4.03
2022-10-16T13:23:31.954Z,4.20
2022-10-16T13:26:40.369Z,3.60
2022-10-16T13:29:07.659Z,3.65
2022-10-16T13:31:38.369Z,4.20
2022-10-16T13:34:11.744Z,3.53
2022-10-16T13:36:51.935Z,4.00
2022-10-16T13:39:28.727Z,3.35
2022-10-16T13:42:28.661Z,3.28
2022-10-16T13:44:56.883Z,4.15
2022-10-16T13:47:29.544Z,3.80
2022-10-16T13:50:01.356Z,3.47
2022-10-16T13:52:29.326Z,4.05
2022-10-16T13:55:00.888Z,3.80
2022-10-16T13:57:29.921Z,3.30
2022-10-16T13:59:57.249Z,3.70
2022-10-16T14:02:37.153Z,4.15
2022-10-16T14:05:09.480Z,4.03
2022-10-16T14:07:38.560Z,3.42
2022-10-16T14:10:25.874Z,3.80
2022-10-16T14:13:15.607Z,3.67
2022-10-16T14:15:49.824Z,5.55
2022-10-16T14:18:24.521Z,3.60
2022-10-16T14:20:52.150Z,4.78
2022-10-16T14:23:23.113Z,4.22
2022-10-16T14:25:50.543Z,4.45
2022-10-16T14:28:23.270Z,4.63
2022-10-16T14:31:00.326Z,3.90
2022-10-16T14:33:30.499Z,3.45
2022-10-16T14:36:09.413Z,3.85
2022-10-16T14:38:41.311Z,4.45
2022-10-16T14:41:09.376Z,3.85
2022-10-16T14:43:48.549Z,3.70
2022-10-16T14:46:30.267Z,3.15
2022-10-16T14:49:11.099Z,3.42
2022-10-16T14:51:42.316Z,3.15
2022-10-16T14:54:10.762Z,3.80
2022-10-16T14:56:57.392Z,4.20
2022-10-16T14:59:46.353Z,4.38
2022-10-16T15:02:32.240Z,4.05
2022-10-16T15:05:17.211Z,3.67
2022-10-16T15:07:45.960Z,4.15
2022-10-16T15:10:14.459Z,3.88
2022-10-16T15:12:41.948Z,4.05
2022-10-16T15:15:24.134Z,4.50
2022-10-16T15:17:53.870Z,4.60
2022-10-16T15:20:21.267Z,5.32
2022-10-16T15:22:48.521Z,4.05
2022-10-16T15:25:34.642Z,4.75
2022-10-16T15:28:04.549Z,3.90
2022-10-16T15:30:31.870Z,4.18
2022-10-16T15:32:59.415Z,4.05
2022-10-16T15:35:26.563Z,4.10
2022-10-16T15:37:53.989Z,3.42
2022-10-16T15:40:23.260Z,4.30
2022-10-16T15:45:19.406Z,4.15
2022-10-16T15:47:46.936Z,3.65
2022-10-16T15:50:16.379Z,4.43
2022-10-16T15:52:43.963Z,4.63
2022-10-16T15:55:13.864Z,4.97
2022-10-16T15:57:43.149Z,4.30
2022-10-16T16:00:15.596Z,4.25
2022-10-16T16:02:44.427Z,4.88
2022-10-16T16:05:12.054Z,4.25
2022-10-16T16:07:41.100Z,4.43
2022-10-16T16:10:11.121Z,5.22
2022-10-16T16:12:39.326Z,4.47
2022-10-16T16:15:09.668Z,4.57
2022-10-16T16:17:37.262Z,5.13
2022-10-16T16:20:06.120Z,5.40
2022-10-16T16:22:33.405Z,5.30
2022-10-16T16:25:00.622Z,5.20
2022-10-16T16:27:30.315Z,5.53
2022-10-16T16:29:57.820Z,5.93
2022-10-16T16:32:25.096Z,6.15
2022-10-16T16:34:52.241Z,4.28
2022-10-16T16:37:19.557Z,4.78
2022-10-16T16:39:46.712Z,4.75
2022-10-16T16:42:13.928Z,4.88
2022-10-16T16:44:43.774Z,4.97
2022-10-16T16:47:11.017Z,4.70
2022-10-16T16:49:39.434Z,5.60
2022-10-16T16:52:06.736Z,5.15
2022-10-16T16:57:06.273Z,5.68
2022-10-16T16:59:33.573Z,5.35
2022-10-16T17:02:01.135Z,5.40
2022-10-16T17:04:28.675Z,4.65
2022-10-16T17:06:56.432Z,5.65
2022-10-16T17:09:23.718Z,5.05
2022-10-16T17:11:51.464Z,5.30
2022-10-16T17:14:20.490Z,5.53
2022-10-16T17:19:19.823Z,4.87
2022-10-16T17:21:51.311Z,6.43
2022-10-16T17:24:21.966Z,5.68
2022-10-16T17:26:49.399Z,5.22
2022-10-16T17:29:18.411Z,5.93
2022-10-16T17:31:49.156Z,5.68
2022-10-16T17:34:18.159Z,6.13
2022-10-16T17:39:19.995Z,5.80
2022-10-16T17:41:48.763Z,6.05
2022-10-16T17:44:19.605Z,7.40
2022-10-16T17:46:49.200Z,7.60
2022-10-16T17:49:17.320Z,7.07
2022-10-16T17:51:45.290Z,7.22
2022-10-16T17:54:13.983Z,6.30
2022-10-16T17:56:41.667Z,8.18
2022-10-16T17:59:11.668Z,7.60
2022-10-16T18:01:40.898Z,6.88
2022-10-16T18:04:12.420Z,8.43
2022-10-16T18:06:42.331Z,16.33
2022-10-16T18:09:14.895Z,14.32
2022-10-16T18:11:44.507Z,13.13
2022-10-16T18:14:17.584Z,11.85
2022-10-16T18:16:45.602Z,10.30
2022-10-16T18:19:13.222Z,9.38
2022-10-16T18:21:40.706Z,11.07
2022-10-16T18:24:09.501Z,24.45
2022-10-16T18:26:37.398Z,16.88
2022-10-16T18:29:05.611Z,17.00
2022-10-16T18:31:37.855Z,18.52
2022-10-16T18:34:10.632Z,19.38
2022-10-16T18:36:39.177Z,15.18
2022-10-16T18:39:09.870Z,12.35
2022-10-16T18:41:47.077Z,14.65
2022-10-16T18:44:14.623Z,19.50
2022-10-16T18:46:42.211Z,21.83
2022-10-16T18:49:09.787Z,20.90
2022-10-16T18:51:40.599Z,14.38
2022-10-16T18:54:11.153Z,22.83
2022-10-16T18:56:39.216Z,24.08
2022-10-16T18:59:08.596Z,18.98
2022-10-16T19:04:12.706Z,20.23
2022-10-16T19:06:46.933Z,17.50
2022-10-16T19:09:17.195Z,17.30
2022-10-16T19:11:45.329Z,15.60
2022-10-16T19:14:15.726Z,15.18
2022-10-16T19:16:43.984Z,15.85
2022-10-16T19:19:17.954Z,13.48
2022-10-16T19:21:47.538Z,12.20
2022-10-16T19:24:16.537Z,13.00
2022-10-16T19:26:44.255Z,12.05
2022-10-16T19:29:11.541Z,10.93
2022-10-16T19:31:39.927Z,11.55
2022-10-16T19:34:09.881Z,12.10
2022-10-16T19:36:39.163Z,23.65
2022-10-16T19:39:15.365Z,16.20
2022-10-16T19:41:43.616Z,14.85
2022-10-16T19:44:15.051Z,15.27
2022-10-16T19:46:43.402Z,13.95
2022-10-16T19:49:17.313Z,15.20
2022-10-16T19:51:51.085Z,18.00
2022-10-16T19:54:18.894Z,18.23
2022-10-16T19:56:46.392Z,29.42
2022-10-16T19:59:16.658Z,31.98
2022-10-16T20:01:44.719Z,25.92
2022-10-16T20:04:13.800Z,32.17
2022-10-16T20:06:41.028Z,22.10
2022-10-16T20:09:08.773Z,18.83
2022-10-16T20:11:36.681Z,14.23
2022-10-16T20:14:04.836Z,15.57
2022-10-16T20:16:32.163Z,13.40
2022-10-16T20:19:00.710Z,15.07
2022-10-16T20:21:32.277Z,14.77
2022-10-16T20:24:01.540Z,16.63
2022-10-16T20:26:28.896Z,14.38
2022-10-16T20:28:56.132Z,14.55
2022-10-16T20:31:29.121Z,14.63
2022-10-16T20:33:58.716Z,13.38
2022-10-16T20:36:29.949Z,14.07
2022-10-16T20:38:57.380Z,12.15
2022-10-16T20:41:25.153Z,14.50
2022-10-16T20:43:52.681Z,13.98
2022-10-16T20:46:23.418Z,14.75
2022-10-16T20:48:51.857Z,13.40
2022-10-16T20:51:29.765Z,13.20
2022-10-16T20:54:02.532Z,13.57
2022-10-16T20:56:34.250Z,12.40
2022-10-16T20:59:01.828Z,12.43
2022-10-16T21:01:31.208Z,11.82
2022-10-16T21:06:30.727Z,13.32
2022-10-16T21:09:02.187Z,16.58
2022-10-16T21:14:02.575Z,21.70
2022-10-16T21:16:30.306Z,21.70
2022-10-16T21:18:58.079Z,24.50
2022-10-16T21:21:32.166Z,23.55
2022-10-16T21:23:59.965Z,17.90
2022-10-16T21:26:28.430Z,21.63
2022-10-16T21:29:05.469Z,16.58
2022-10-16T21:31:33.439Z,16.10
2022-10-16T21:34:00.727Z,15.65
2022-10-16T21:36:31.329Z,15.90
2022-10-16T21:39:08.207Z,12.70
2022-10-16T21:41:36.584Z,14.85
2022-10-16T21:44:05.246Z,17.65
2022-10-16T21:46:35.621Z,16.98
2022-10-16T21:49:05.894Z,16.25
2022-10-16T21:51:39.258Z,13.38
2022-10-16T21:54:09.894Z,12.98
2022-10-16T21:56:37.141Z,12.38
2022-10-16T21:59:05.228Z,12.90
2022-10-16T22:01:32.804Z,12.27
2022-10-16T22:04:00.104Z,13.00
2022-10-16T22:06:28.888Z,11.80
2022-10-16T22:08:59.596Z,11.75
2022-10-16T22:11:37.075Z,12.75
2022-10-16T22:14:14.534Z,12.10
2022-10-16T22:16:42.562Z,11.02
2022-10-16T22:19:11.385Z,12.05
2022-10-16T22:21:40.616Z,12.20
2022-10-16T22:24:08.658Z,13.90
2022-10-16T22:26:36.596Z,12.55
2022-10-16T22:29:05.060Z,13.27
2022-10-16T22:31:33.073Z,12.75
2022-10-16T22:34:03.295Z,13.30
2022-10-16T22:36:31.234Z,12.90
2022-10-16T22:38:59.329Z,11.35
2022-10-16T22:41:26.550Z,14.20
2022-10-16T22:43:54.253Z,13.70
2022-10-16T22:46:26.908Z,13.45
2022-10-16T22:48:55.894Z,12.70
2022-10-16T22:51:26.106Z,12.45
2022-10-16T22:53:53.525Z,14.30
2022-10-16T22:56:21.445Z,13.02
2022-10-16T22:58:49.316Z,11.63
2022-10-16T23:01:28.906Z,13.15
2022-10-16T23:03:56.659Z,10.70
2022-10-16T23:06:24.125Z,10.30
2022-10-16T23:08:56.025Z,10.70
2022-10-16T23:11:23.995Z,11.57
2022-10-16T23:13:51.088Z,11.98
2022-10-16T23:16:21.113Z,11.75
2022-10-16T23:18:49.327Z,12.27
2022-10-16T23:21:21.111Z,12.45
2022-10-16T23:23:48.981Z,10.93
2022-10-16T23:26:20.218Z,11.02
2022-10-16T23:28:47.387Z,11.73
2022-10-16T23:31:15.845Z,10.82
2022-10-16T23:33:44.054Z,10.55
2022-10-16T23:36:15.164Z,11.57
2022-10-16T23:38:43.143Z,11.80
2022-10-16T23:41:11.661Z,11.55
2022-10-16T23:43:39.236Z,12.45
2022-10-16T23:46:09.346Z,10.88
2022-10-16T23:48:39.558Z,10.65
2022-10-16T23:51:08.156Z,11.98
2022-10-16T23:53:35.317Z,11.30
2022-10-16T23:56:03.081Z,11.38
2022-10-16T23:58:30.295Z,11.48
